Argyle Township, Maine
Current Conditions -  °F | °C
As of 6:53 AM on Saturday 20 Dec 2014 (Local Time) from KBGR Reporting Station
Few Clouds Few Clouds  
Wind Chill:   Ceiling: Unl
Heat Index: 17°   Visibility: 10mi
Dew Point: 13°   Wind: 8mph
Humidity: 84%   Direction: 360°N
Pressure: 30.29"   Gusts: NA
Location:  45.0236°N, 68.7394°W
Report Text: KBGR 201153Z 36007KT 10SM FEW040 FEW200 M08/M11 A3029 RMK AO2 SLP261 4/002 I6001 T10831106 11078 21106 51021
Loading
Personal Weather Stations






























Interactive Weather Map New forecast layout! Learn more

10-Day Weather Forecast

Advertisements
Track Severe Weather on mobile